createdAt,value
2018-12-01T00:00:28.265Z,44.33
2018-12-01T00:02:56.971Z,40.60
2018-12-01T00:05:25.889Z,36.53
2018-12-01T00:07:55.122Z,42.60
2018-12-01T00:10:23.749Z,38.43
2018-12-01T00:12:52.546Z,42.63
2018-12-01T00:15:24.493Z,44.73
2018-12-01T00:17:53.697Z,40.03
2018-12-01T00:20:23.847Z,46.63
2018-12-01T00:22:52.617Z,65.50
2018-12-01T00:25:21.258Z,50.43
2018-12-01T00:27:49.838Z,44.07
2018-12-01T00:30:19.413Z,59.23
2018-12-01T00:32:49.430Z,44.97
2018-12-01T00:35:18.073Z,55.10
2018-12-01T00:37:46.749Z,51.67
2018-12-01T00:40:22.678Z,62.03
2018-12-01T00:42:51.292Z,48.77
2018-12-01T00:45:21.289Z,54.50
2018-12-01T00:47:53.813Z,55.33
2018-12-01T00:50:23.654Z,57.53
2018-12-01T00:52:53.135Z,59.67
2018-12-01T00:55:22.204Z,59.27
2018-12-01T00:57:51.007Z,42.73
2018-12-01T01:00:22.136Z,54.03
2018-12-01T01:02:52.608Z,54.37
2018-12-01T01:05:22.355Z,48.13
2018-12-01T01:07:51.057Z,45.97
2018-12-01T01:10:20.785Z,49.23
2018-12-01T01:12:49.432Z,40.67
2018-12-01T01:15:18.193Z,42.97
2018-12-01T01:17:46.839Z,46.03
2018-12-01T01:20:16.681Z,43.33
2018-12-01T01:22:46.105Z,40.40
2018-12-01T01:25:15.451Z,35.00
2018-12-01T01:27:44.350Z,45.20
2018-12-01T01:30:20.430Z,46.77
2018-12-01T01:32:49.962Z,43.27
2018-12-01T01:35:18.629Z,44.13
2018-12-01T01:37:47.261Z,45.27
2018-12-01T01:40:17.001Z,42.40
2018-12-01T01:42:45.741Z,41.47
2018-12-01T01:45:16.662Z,41.93
2018-12-01T01:47:45.393Z,45.63
2018-12-01T01:50:15.434Z,45.17
2018-12-01T01:52:44.108Z,43.00
2018-12-01T01:55:12.965Z,45.43
2018-12-01T01:57:41.865Z,46.77
2018-12-01T02:00:14.659Z,63.53
2018-12-01T02:02:46.211Z,70.53
2018-12-01T02:05:15.649Z,64.70
2018-12-01T02:07:44.243Z,76.77
2018-12-01T02:10:14.011Z,54.07
2018-12-01T02:12:42.782Z,48.70
2018-12-01T02:15:12.426Z,46.80
2018-12-01T02:17:41.037Z,38.40
2018-12-01T02:20:11.914Z,41.10
2018-12-01T02:22:40.614Z,46.53
2018-12-01T02:25:12.408Z,38.37
2018-12-01T02:27:41.026Z,39.90
2018-12-01T02:30:12.598Z,39.87
2018-12-01T02:32:41.283Z,38.27
2018-12-01T02:35:17.241Z,42.00
2018-12-01T02:37:45.894Z,43.83
2018-12-01T02:40:14.881Z,37.00
2018-12-01T02:42:43.893Z,40.10
2018-12-01T02:45:23.929Z,40.33
2018-12-01T02:47:52.598Z,42.20
2018-12-01T02:50:27.153Z,41.33
2018-12-01T02:52:56.893Z,49.50
2018-12-01T02:55:25.530Z,44.73
2018-12-01T02:57:54.285Z,34.80
2018-12-01T03:00:23.034Z,44.47
2018-12-01T03:02:51.882Z,43.50
2018-12-01T03:05:22.656Z,39.70
2018-12-01T03:07:52.010Z,40.23
2018-12-01T03:10:20.719Z,38.70
2018-12-01T03:12:50.299Z,44.90
2018-12-01T03:15:19.646Z,40.97
2018-12-01T03:17:49.269Z,43.50
2018-12-01T03:20:18.630Z,47.53
2018-12-01T03:22:47.345Z,43.23
2018-12-01T03:25:24.339Z,43.90
2018-12-01T03:27:54.773Z,43.77
2018-12-01T03:30:25.676Z,56.03
2018-12-01T03:32:55.321Z,53.73
2018-12-01T03:35:24.909Z,51.30
2018-12-01T03:37:53.571Z,42.60
2018-12-01T03:40:22.983Z,40.07
2018-12-01T03:42:52.817Z,45.63
2018-12-01T03:45:22.580Z,44.53
2018-12-01T03:47:51.298Z,43.10
2018-12-01T03:50:23.464Z,44.73
2018-12-01T03:52:53.507Z,39.80
2018-12-01T03:55:29.712Z,47.83
2018-12-01T03:57:58.542Z,50.67
2018-12-01T04:00:28.964Z,34.53
2018-12-01T04:02:58.403Z,39.97
2018-12-01T04:05:27.241Z,46.40
2018-12-01T04:07:55.961Z,41.00
2018-12-01T04:10:24.627Z,43.50
2018-12-01T04:12:53.933Z,41.03
2018-12-01T04:15:22.779Z,39.70
2018-12-01T04:17:51.477Z,37.33
2018-12-01T04:20:20.147Z,38.13
2018-12-01T04:22:48.810Z,44.40
2018-12-01T04:25:17.633Z,41.47
2018-12-01T04:27:46.308Z,41.17
2018-12-01T04:30:20.866Z,39.67
2018-12-01T04:32:49.590Z,40.57
2018-12-01T04:35:19.183Z,34.63
2018-12-01T04:37:50.063Z,35.63
2018-12-01T04:40:18.745Z,32.93
2018-12-01T04:42:48.096Z,43.50
2018-12-01T04:46:41.165Z,42.80
2018-12-01T04:49:09.810Z,33.73
2018-12-01T04:51:38.581Z,34.43
2018-12-01T04:54:07.306Z,37.67
2018-12-01T04:56:36.177Z,35.80
2018-12-01T04:59:04.866Z,41.70
2018-12-01T05:01:33.495Z,41.70
2018-12-01T05:04:02.130Z,40.30
2018-12-01T05:06:30.784Z,44.13
2018-12-01T05:08:59.453Z,46.00
2018-12-01T05:11:28.149Z,42.67
2018-12-01T05:13:57.126Z,41.97
2018-12-01T05:16:25.742Z,47.40
2018-12-01T05:18:54.406Z,45.13
2018-12-01T05:21:23.201Z,53.13
2018-12-01T05:23:51.921Z,49.70
2018-12-01T05:26:20.549Z,44.80
2018-12-01T05:28:49.169Z,58.17
2018-12-01T05:31:17.821Z,47.63
2018-12-01T05:33:46.542Z,60.77
2018-12-01T05:36:15.195Z,53.60
2018-12-01T05:38:43.882Z,44.30
2018-12-01T05:41:12.584Z,44.07
2018-12-01T05:43:41.269Z,51.10
2018-12-01T05:46:09.944Z,45.77
2018-12-01T05:48:38.601Z,50.93
2018-12-01T05:51:07.197Z,47.10
2018-12-01T05:53:35.793Z,47.10
2018-12-01T05:56:04.469Z,43.77
2018-12-01T05:58:33.206Z,42.87
2018-12-01T06:01:02.101Z,46.57
2018-12-01T06:03:30.977Z,47.00
2018-12-01T06:05:59.643Z,57.23
2018-12-01T06:08:28.328Z,57.30
2018-12-01T06:10:57.008Z,49.57
2018-12-01T06:13:25.667Z,53.00
2018-12-01T06:15:54.389Z,58.37
2018-12-01T06:18:23.026Z,51.50
2018-12-01T06:20:51.777Z,57.07
2018-12-01T06:23:20.409Z,71.13
2018-12-01T06:25:49.186Z,55.40
2018-12-01T06:28:17.795Z,54.30
2018-12-01T06:30:46.478Z,55.00
2018-12-01T06:33:15.292Z,50.13
2018-12-01T06:35:43.928Z,50.10
2018-12-01T06:38:12.670Z,57.00
2018-12-01T06:40:41.333Z,47.63
2018-12-01T06:43:10.129Z,44.83
2018-12-01T06:45:38.820Z,52.90
2018-12-01T06:48:07.507Z,54.87
2018-12-01T06:50:36.184Z,58.97
2018-12-01T06:53:04.978Z,53.80
2018-12-01T06:55:33.841Z,52.80
2018-12-01T06:58:02.519Z,55.67
2018-12-01T07:00:31.228Z,51.57
2018-12-01T07:02:59.889Z,70.23
2018-12-01T07:05:28.581Z,67.13
2018-12-01T07:07:57.258Z,62.03
2018-12-01T07:10:25.979Z,62.10
2018-12-01T07:12:57.146Z,101.50
2018-12-01T07:15:27.487Z,81.83
2018-12-01T07:17:56.151Z,76.20
2018-12-01T07:20:26.324Z,66.67
2018-12-01T07:22:55.003Z,62.80
2018-12-01T07:25:23.755Z,63.87
2018-12-01T07:27:52.393Z,86.37
2018-12-01T07:30:21.074Z,65.27
2018-12-01T07:32:49.775Z,69.70
2018-12-01T07:35:18.435Z,72.90
2018-12-01T07:37:47.137Z,73.43
2018-12-01T07:40:18.009Z,60.20
2018-12-01T07:42:47.548Z,81.97
2018-12-01T07:45:16.667Z,77.97
2018-12-01T07:47:45.453Z,67.30
2018-12-01T07:50:16.975Z,67.13
2018-12-01T07:52:49.529Z,71.20
2018-12-01T07:55:18.380Z,71.90
2018-12-01T07:57:47.051Z,69.93
2018-12-01T08:00:16.687Z,71.20
2018-12-01T08:02:47.809Z,75.43
2018-12-01T08:05:16.485Z,101.23
2018-12-01T08:07:45.251Z,133.23
2018-12-01T08:10:15.262Z,137.77
2018-12-01T08:12:44.055Z,122.27
2018-12-01T08:15:14.130Z,95.10
2018-12-01T08:17:42.828Z,86.90
2018-12-01T08:20:12.548Z,96.33
2018-12-01T08:22:41.245Z,108.10
2018-12-01T08:25:18.078Z,86.00
2018-12-01T08:27:48.813Z,75.43
2018-12-01T08:30:19.766Z,61.63
2018-12-01T08:32:48.509Z,38.57
2018-12-01T08:35:17.220Z,26.17
2018-12-01T08:37:45.898Z,45.37
2018-12-01T08:40:16.142Z,37.83
2018-12-01T08:42:44.903Z,46.60
2018-12-01T08:45:13.585Z,41.43
2018-12-01T08:47:42.568Z,46.50
2018-12-01T08:50:13.689Z,45.30
2018-12-01T08:52:42.688Z,46.87
2018-12-01T08:55:13.065Z,55.63
2018-12-01T08:57:41.690Z,60.60
2018-12-01T09:00:17.806Z,50.50
2018-12-01T09:02:48.881Z,51.37
2018-12-01T09:05:17.450Z,54.70
2018-12-01T09:07:46.045Z,49.50
2018-12-01T09:10:14.640Z,52.63
2018-12-01T09:12:43.449Z,43.77
2018-12-01T09:15:12.758Z,51.27
2018-12-01T09:17:41.785Z,44.30
2018-12-01T09:20:13.424Z,49.70
2018-12-01T09:22:43.440Z,44.53
2018-12-01T09:25:14.245Z,35.47
2018-12-01T09:27:43.049Z,42.93
2018-12-01T09:30:17.213Z,48.70
2018-12-01T09:32:45.961Z,50.70
2018-12-01T09:35:14.673Z,46.87
2018-12-01T09:37:43.455Z,46.80
2018-12-01T09:40:14.358Z,44.93
2018-12-01T09:42:43.321Z,44.70
2018-12-01T09:45:15.109Z,47.83
2018-12-01T09:47:44.882Z,46.77
2018-12-01T09:50:14.641Z,48.93
2018-12-01T09:52:44.033Z,51.97
2018-12-01T09:55:14.307Z,47.13
2018-12-01T09:57:43.890Z,53.50
2018-12-01T10:00:15.095Z,82.17
2018-12-01T10:02:44.584Z,49.17
2018-12-01T10:05:14.825Z,54.23
2018-12-01T10:07:43.512Z,72.13
2018-12-01T10:10:13.534Z,57.83
2018-12-01T10:12:42.240Z,56.10
2018-12-01T10:15:17.185Z,52.33
2018-12-01T10:17:46.025Z,58.53
2018-12-01T10:20:16.330Z,53.80
2018-12-01T10:22:45.126Z,51.87
2018-12-01T10:25:15.180Z,54.93
2018-12-01T10:27:43.920Z,55.30
2018-12-01T10:30:13.941Z,50.80
2018-12-01T10:32:42.633Z,56.83
2018-12-01T10:35:13.500Z,57.73
2018-12-01T10:37:42.261Z,50.47
2018-12-01T10:40:12.038Z,52.03
2018-12-01T10:42:40.761Z,57.33
2018-12-01T10:45:12.984Z,57.03
2018-12-01T10:47:42.050Z,53.97
2018-12-01T10:50:12.731Z,63.40
2018-12-01T10:52:41.478Z,61.97
2018-12-01T10:55:19.393Z,66.60
2018-12-01T10:57:47.983Z,86.67
2018-12-01T11:00:21.961Z,56.07
2018-12-01T11:03:59.525Z,55.67
2018-12-01T11:06:28.348Z,73.63
2018-12-01T11:08:56.970Z,61.87
2018-12-01T11:11:25.784Z,58.83
2018-12-01T11:13:54.434Z,59.70
2018-12-01T11:16:23.074Z,57.47
2018-12-01T11:18:52.230Z,57.47
2018-12-01T11:21:20.922Z,54.93
2018-12-01T11:23:49.598Z,53.73
2018-12-01T11:26:18.365Z,54.60
2018-12-01T11:28:47.054Z,75.50
2018-12-01T11:31:15.718Z,64.63
2018-12-01T11:33:44.426Z,63.80
2018-12-01T11:36:13.149Z,70.07
2018-12-01T11:38:41.860Z,60.70
2018-12-01T11:41:10.663Z,55.80
2018-12-01T11:43:39.325Z,57.13
2018-12-01T11:46:08.003Z,57.47
2018-12-01T11:48:36.669Z,52.97
2018-12-01T11:51:05.877Z,50.07
2018-12-01T11:53:34.598Z,55.43
2018-12-01T11:56:03.349Z,74.40
2018-12-01T11:58:31.985Z,58.70
2018-12-01T12:01:00.577Z,58.17
2018-12-01T12:03:29.289Z,59.73
2018-12-01T12:05:57.958Z,65.10
2018-12-01T12:08:27.603Z,61.87
2018-12-01T12:10:56.257Z,63.00
2018-12-01T12:13:26.503Z,69.33
2018-12-01T12:15:55.400Z,59.33
2018-12-01T12:18:24.129Z,65.00
2018-12-01T12:20:52.788Z,57.70
2018-12-01T12:23:21.473Z,65.40
2018-12-01T12:25:50.358Z,65.77
2018-12-01T12:28:18.991Z,70.33
2018-12-01T12:30:47.774Z,65.83
2018-12-01T12:33:16.462Z,64.47
2018-12-01T12:35:45.149Z,65.47
2018-12-01T12:38:13.948Z,55.53
2018-12-01T12:40:42.665Z,60.00
2018-12-01T12:43:11.303Z,63.80
2018-12-01T12:45:40.039Z,63.17
2018-12-01T12:48:09.568Z,71.60
2018-12-01T12:50:38.204Z,66.50
2018-12-01T12:53:06.865Z,66.50
2018-12-01T12:55:35.575Z,67.60
2018-12-01T12:58:04.238Z,70.20
2018-12-01T13:00:32.911Z,62.67
2018-12-01T13:03:03.938Z,66.67
2018-12-01T13:05:35.067Z,67.77
2018-12-01T13:08:04.158Z,69.17
2018-12-01T13:10:32.964Z,64.00
2018-12-01T13:13:01.795Z,65.30
2018-12-01T13:15:30.581Z,68.50
2018-12-01T13:17:59.425Z,67.83
2018-12-01T13:20:28.454Z,66.70
2018-12-01T13:22:59.963Z,91.27
2018-12-01T13:25:28.894Z,73.57
2018-12-01T13:28:05.209Z,65.17
2018-12-01T13:30:36.637Z,71.60
2018-12-01T13:33:05.652Z,68.43
2018-12-01T13:35:34.369Z,69.00
2018-12-01T13:38:03.413Z,69.33
2018-12-01T13:40:32.298Z,79.37
2018-12-01T13:43:01.101Z,69.23
2018-12-01T13:45:30.079Z,103.37
2018-12-01T13:47:58.836Z,82.67
2018-12-01T13:50:27.932Z,91.30
2018-12-01T13:52:59.095Z,87.03
2018-12-01T13:55:28.031Z,77.57
2018-12-01T13:57:56.850Z,89.23
2018-12-01T14:00:26.897Z,92.33
2018-12-01T14:02:55.781Z,94.33
2018-12-01T14:05:24.677Z,95.90
2018-12-01T14:07:53.550Z,89.70
2018-12-01T14:10:25.505Z,82.27
2018-12-01T14:12:58.669Z,78.57
2018-12-01T14:15:27.587Z,92.47
2018-12-01T14:17:56.361Z,102.37
2018-12-01T14:20:25.169Z,97.00
2018-12-01T14:22:54.067Z,89.70
2018-12-01T14:25:23.396Z,110.07
2018-12-01T14:27:54.779Z,97.87
2018-12-01T14:30:23.539Z,95.90
2018-12-01T14:32:52.365Z,105.13
2018-12-01T14:35:25.406Z,104.67
2018-12-01T14:38:10.029Z,110.07
2018-12-01T14:40:39.576Z,113.10
2018-12-01T14:43:08.635Z,95.13
2018-12-01T14:45:37.933Z,89.60
2018-12-01T14:48:07.556Z,96.13
2018-12-01T14:50:36.193Z,88.70
2018-12-01T14:53:05.634Z,84.37
2018-12-01T14:55:34.277Z,97.00
2018-12-01T14:58:02.978Z,100.10
2018-12-01T15:00:31.784Z,92.77
2018-12-01T15:03:00.483Z,81.27
2018-12-01T15:05:29.107Z,82.87
2018-12-01T15:07:57.868Z,87.30
2018-12-01T15:10:27.378Z,94.97
2018-12-01T15:12:56.191Z,100.07
2018-12-01T15:15:26.368Z,92.23
2018-12-01T15:17:55.081Z,97.93
2018-12-01T15:20:25.976Z,90.80
2018-12-01T15:22:56.744Z,94.37
2018-12-01T15:25:27.760Z,119.47
2018-12-01T15:27:56.922Z,98.00
2018-12-01T15:30:27.619Z,95.27
2018-12-01T15:33:02.716Z,73.07
2018-12-01T15:35:31.579Z,88.80
2018-12-01T15:38:00.499Z,86.93
2018-12-01T15:40:29.338Z,99.17
2018-12-01T15:42:58.277Z,87.07
2018-12-01T15:45:26.961Z,99.40
2018-12-01T15:47:55.934Z,99.77
2018-12-01T15:50:25.838Z,93.17
2018-12-01T15:52:55.909Z,95.17
2018-12-01T15:55:24.898Z,69.67
2018-12-01T15:57:54.026Z,53.93
2018-12-01T16:00:25.888Z,96.07
2018-12-01T16:02:54.770Z,67.83
2018-12-01T16:05:24.489Z,69.50
2018-12-01T16:07:55.574Z,85.53
2018-12-01T16:10:24.989Z,86.33
2018-12-01T16:13:00.518Z,90.03
2018-12-01T16:15:32.814Z,83.00
2018-12-01T16:18:01.765Z,95.10
2018-12-01T16:20:30.560Z,100.77
2018-12-01T16:22:59.472Z,87.23
2018-12-01T16:25:28.504Z,83.33
2018-12-01T16:27:57.414Z,107.10
2018-12-01T16:30:27.718Z,92.63
2018-12-01T16:32:58.842Z,113.37
2018-12-01T16:35:27.598Z,105.00
2018-12-01T16:37:56.673Z,97.30
2018-12-01T16:40:37.638Z,105.43
2018-12-01T16:43:08.726Z,118.47
2018-12-01T16:45:37.389Z,111.43
2018-12-01T16:48:06.503Z,73.73
2018-12-01T16:50:35.143Z,97.27
2018-12-01T16:53:03.933Z,94.97
2018-12-01T16:55:32.706Z,126.70
2018-12-01T16:58:01.397Z,110.57
2018-12-01T17:00:30.464Z,99.07
2018-12-01T17:03:00.073Z,111.97
2018-12-01T17:05:30.690Z,106.53
2018-12-01T17:07:59.385Z,126.13
2018-12-01T17:10:28.125Z,114.43
2018-12-01T17:12:58.409Z,132.93
2018-12-01T17:15:26.565Z,136.40
2018-12-01T17:17:55.369Z,111.67
2018-12-01T17:20:24.102Z,126.00
2018-12-01T17:22:55.279Z,105.07
2018-12-01T17:25:24.015Z,95.23
2018-12-01T17:27:53.961Z,118.50
2018-12-01T17:30:24.839Z,106.03
2018-12-01T17:32:54.451Z,88.07
2018-12-01T17:35:26.928Z,96.30
2018-12-01T17:37:57.135Z,96.60
2018-12-01T17:41:31.353Z,112.57
2018-12-01T17:44:03.321Z,126.60
2018-12-01T17:46:32.185Z,126.87
2018-12-01T17:49:00.885Z,117.37
2018-12-01T17:51:29.759Z,119.23
2018-12-01T17:54:01.446Z,124.33
2018-12-01T17:56:30.286Z,118.00
2018-12-01T17:58:58.983Z,109.83
2018-12-01T18:01:27.643Z,127.93
2018-12-01T18:03:56.309Z,112.60
2018-12-01T18:06:25.007Z,125.10
2018-12-01T18:08:53.710Z,113.67
2018-12-01T18:11:22.478Z,148.30
2018-12-01T18:13:51.168Z,148.37
2018-12-01T18:16:19.834Z,147.60
2018-12-01T18:18:48.652Z,128.30
2018-12-01T18:21:17.294Z,136.13
2018-12-01T18:23:46.038Z,117.50
2018-12-01T18:26:14.788Z,138.20
2018-12-01T18:28:46.349Z,120.70
2018-12-01T18:31:20.713Z,149.13
2018-12-01T18:33:56.049Z,74.20
2018-12-01T18:36:24.687Z,92.43
2018-12-01T18:38:53.342Z,111.23
2018-12-01T18:41:22.106Z,120.30
2018-12-01T18:43:50.724Z,108.37
2018-12-01T18:46:19.529Z,118.47
2018-12-01T18:48:48.200Z,114.13
2018-12-01T18:51:16.880Z,97.20
2018-12-01T18:53:45.786Z,134.60
2018-12-01T18:56:14.449Z,87.40
2018-12-01T18:58:43.261Z,118.60
2018-12-01T19:01:11.998Z,97.67
2018-12-01T19:03:40.858Z,146.30
2018-12-01T19:06:09.644Z,148.77
2018-12-01T19:08:38.274Z,159.17
2018-12-01T19:11:08.101Z,149.37
2018-12-01T19:13:36.937Z,121.97
2018-12-01T19:16:06.426Z,153.00
2018-12-01T19:18:35.226Z,151.40
2018-12-01T19:21:03.901Z,74.63
2018-12-01T19:23:32.606Z,69.67
2018-12-01T19:26:01.238Z,71.50
2018-12-01T19:28:30.046Z,108.53
2018-12-01T19:32:01.977Z,74.43
2018-12-01T19:34:30.684Z,125.80
2018-12-01T19:36:59.351Z,83.50
2018-12-01T19:39:28.027Z,70.17
2018-12-01T19:41:56.728Z,124.63
2018-12-01T19:44:25.811Z,62.33
2018-12-01T19:46:54.553Z,78.33
2018-12-01T19:49:23.317Z,111.97
2018-12-01T19:51:51.973Z,113.23
2018-12-01T19:54:20.783Z,73.10
2018-12-01T19:56:49.446Z,97.43
2018-12-01T19:59:18.138Z,105.63
2018-12-01T20:01:46.834Z,109.60
2018-12-01T20:04:15.662Z,94.73
2018-12-01T20:06:44.329Z,100.83
2018-12-01T20:09:13.135Z,111.47
2018-12-01T20:11:41.792Z,123.37
2018-12-01T20:14:13.340Z,70.03
2018-12-01T20:16:44.285Z,110.77
2018-12-01T20:19:12.989Z,106.30
2018-12-01T20:21:41.741Z,150.83
2018-12-01T20:24:10.398Z,81.23
2018-12-01T20:26:40.698Z,160.13
2018-12-01T20:29:09.317Z,70.27
2018-12-01T20:31:38.002Z,127.90
2018-12-01T20:34:07.273Z,148.10
2018-12-01T20:36:38.523Z,68.13
2018-12-01T20:39:18.236Z,60.47
2018-12-01T20:41:46.903Z,129.50
2018-12-01T20:44:15.645Z,131.43
2018-12-01T20:46:46.105Z,164.00
2018-12-01T20:49:14.769Z,87.07
2018-12-01T20:51:43.445Z,174.57
2018-12-01T20:54:26.474Z,159.17
2018-12-01T20:57:00.297Z,161.63
2018-12-01T20:59:29.589Z,172.90
2018-12-01T21:01:58.253Z,145.00
2018-12-01T21:04:26.921Z,99.57
2018-12-01T21:06:55.629Z,164.63
2018-12-01T21:09:24.308Z,141.53
2018-12-01T21:11:53.006Z,117.50
2018-12-01T21:14:21.966Z,136.30
2018-12-01T21:16:50.597Z,125.37
2018-12-01T21:19:19.252Z,148.23
2018-12-01T21:21:47.929Z,161.50
2018-12-01T21:24:16.873Z,154.67
2018-12-01T21:26:45.507Z,171.10
2018-12-01T21:29:14.345Z,135.47
2018-12-01T21:31:43.065Z,130.77
2018-12-01T21:34:11.718Z,156.90
2018-12-01T21:36:40.373Z,179.27
2018-12-01T21:39:09.733Z,147.83
2018-12-01T21:41:38.345Z,161.50
2018-12-01T21:44:07.091Z,171.50
2018-12-01T21:46:35.802Z,179.57
2018-12-01T21:49:04.406Z,170.40
2018-12-01T21:51:33.097Z,202.43
2018-12-01T21:54:01.761Z,174.73
2018-12-01T21:56:30.520Z,172.60
2018-12-01T21:58:59.177Z,171.83
2018-12-01T22:01:28.056Z,154.20
2018-12-01T22:03:56.703Z,120.70
2018-12-01T22:06:25.369Z,165.43
2018-12-01T22:08:53.990Z,162.83
2018-12-01T22:11:22.662Z,173.33
2018-12-01T22:13:51.488Z,140.73
2018-12-01T22:16:20.130Z,159.13
2018-12-01T22:18:48.811Z,160.50
2018-12-01T22:21:17.515Z,184.27
2018-12-01T22:23:46.185Z,165.73
2018-12-01T22:26:14.857Z,160.37
2018-12-01T22:28:43.533Z,158.57
2018-12-01T22:31:12.153Z,155.80
2018-12-01T22:33:40.806Z,142.97
2018-12-01T22:36:09.429Z,164.40
2018-12-01T22:38:38.097Z,157.63
2018-12-01T22:41:06.915Z,189.23
2018-12-01T22:43:35.604Z,145.00
2018-12-01T22:46:04.329Z,176.57
2018-12-01T22:48:33.043Z,168.30
2018-12-01T22:51:01.856Z,148.13
2018-12-01T22:53:30.657Z,194.10
2018-12-01T22:55:59.301Z,202.27
2018-12-01T22:58:27.989Z,194.47
2018-12-01T23:00:58.227Z,94.40
2018-12-01T23:03:28.193Z,90.57
2018-12-01T23:05:56.821Z,192.57
2018-12-01T23:08:26.769Z,143.60
2018-12-01T23:10:55.728Z,177.30
2018-12-01T23:13:24.417Z,217.03
2018-12-01T23:15:53.308Z,178.17
2018-12-01T23:18:23.590Z,221.83
2018-12-01T23:20:52.179Z,231.37
2018-12-01T23:23:20.846Z,196.57
2018-12-01T23:25:49.566Z,251.07
2018-12-01T23:28:18.281Z,215.17
2018-12-01T23:30:50.759Z,231.33
2018-12-01T23:33:20.971Z,231.10
2018-12-01T23:35:49.645Z,225.93
2018-12-01T23:38:20.305Z,244.73
2018-12-01T23:40:49.981Z,205.20
2018-12-01T23:43:22.417Z,271.97
2018-12-01T23:45:51.185Z,228.17
2018-12-01T23:48:19.819Z,253.13
2018-12-01T23:50:50.605Z,268.97
2018-12-01T23:53:19.242Z,90.73
2018-12-01T23:55:47.947Z,225.87
2018-12-01T23:58:16.590Z,164.07
